Time;durP1;ratioP1;P1;durP2;ratioP2;P2;SDS_P1;SDS_P2;PMS_P1;PMS_P2;Temp;Humidity;BMP_temperature;BMP_pressure;BME280_temperature;BME280_humidity;BME280_pressure;Samples;Min_cycle;Max_cycle;Signal;HPM_P1;HPM_P2
2021/10/18 00:00:23;;;;;;;14.82;9.52;;;;;;;13.62;55.34;102117.16;4850722;29;113011;-74
2021/10/18 00:02:57;;;;;;;16.23;9.93;;;;;;;13.61;55.24;102120.72;4835129;29;124204;-74
2021/10/18 00:05:25;;;;;;;20.05;10.32;;;;;;;13.60;55.29;102124.31;4834009;29;123206;-74
2021/10/18 00:07:55;;;;;;;14.75;9.98;;;;;;;13.60;55.39;102119.00;4831949;29;115435;-74
2021/10/18 00:10:22;;;;;;;14.43;9.95;;;;;;;13.61;55.30;102131.38;4834025;29;115608;-74
2021/10/18 00:12:50;;;;;;;19.30;10.30;;;;;;;13.61;55.17;102126.03;4849732;29;123974;-74
2021/10/18 00:15:17;;;;;;;14.80;9.48;;;;;;;13.60;55.16;102124.31;4834350;29;124171;-74
2021/10/18 00:17:45;;;;;;;17.08;9.68;;;;;;;13.58;55.26;102131.47;4834464;29;113258;-75
2021/10/18 00:20:14;;;;;;;15.20;9.55;;;;;;;13.57;55.27;102135.06;4835856;29;113418;-75
2021/10/18 00:22:42;;;;;;;18.63;10.02;;;;;;;13.57;55.30;102135.06;4834589;29;124003;-74
2021/10/18 00:25:10;;;;;;;15.10;9.48;;;;;;;13.56;55.32;102130.66;4834257;29;123796;-74
2021/10/18 00:27:37;;;;;;;16.77;10.75;;;;;;;13.55;55.13;102120.97;4848367;29;114279;-74
2021/10/18 00:30:05;;;;;;;16.80;10.80;;;;;;;13.54;55.29;102113.88;4834648;29;114752;-75
2021/10/18 00:32:32;;;;;;;18.92;10.80;;;;;;;13.53;55.31;102122.81;4834444;29;123855;-74
2021/10/18 00:34:59;;;;;;;15.20;9.93;;;;;;;13.51;55.33;102122.00;4835466;29;123989;-74
2021/10/18 00:37:26;;;;;;;16.70;10.57;;;;;;;13.50;55.32;102117.59;4849420;29;113542;-75
2021/10/18 00:39:54;;;;;;;14.45;9.50;;;;;;;13.50;55.34;102122.91;4849422;29;113884;-74
2021/10/18 00:42:21;;;;;;;18.05;10.00;;;;;;;13.48;55.43;102130.09;4833964;29;123874;-74
2021/10/18 00:44:50;;;;;;;17.50;10.15;;;;;;;13.47;55.43;102133.66;4835182;29;124414;-74
2021/10/18 00:47:19;;;;;;;16.17;10.48;;;;;;;13.47;55.42;102137.22;4831723;29;113368;-74
2021/10/18 00:49:47;;;;;;;16.77;10.15;;;;;;;13.47;55.52;102139.88;4833129;29;112835;-75
2021/10/18 00:52:18;;;;;;;18.55;10.55;;;;;;;13.48;55.61;102138.06;4834931;29;124297;-74
2021/10/18 00:54:46;;;;;;;16.52;10.15;;;;;;;13.49;55.70;102147.81;4837167;29;124418;-75
2021/10/18 00:57:15;;;;;;;17.42;10.70;;;;;;;13.51;55.62;102145.97;4837691;29;115444;-74
2021/10/18 00:59:43;;;;;;;19.45;10.68;;;;;;;13.52;55.85;102153.00;4841243;29;115536;-74
2021/10/18 01:02:11;;;;;;;16.13;10.55;;;;;;;13.55;55.67;102158.22;4839215;29;124124;-75
2021/10/18 01:04:39;;;;;;;16.25;9.88;;;;;;;13.56;55.57;102159.94;4836118;29;124100;-74
2021/10/18 01:07:06;;;;;;;16.10;10.15;;;;;;;13.58;55.63;102168.75;4839131;29;114071;-74
2021/10/18 01:09:33;;;;;;;16.50;10.65;;;;;;;13.58;55.49;102158.09;4835653;29;113511;-75
2021/10/18 01:12:00;;;;;;;17.27;10.65;;;;;;;13.58;55.51;102163.41;4833553;29;124083;-74
2021/10/18 01:14:27;;;;;;;16.83;10.48;;;;;;;13.57;55.62;102167.00;4837019;29;123280;-74
2021/10/18 01:16:55;;;;;;;20.15;10.95;;;;;;;13.57;55.45;102161.69;4837260;29;114522;-73
2021/10/18 01:19:22;;;;;;;16.40;10.07;;;;;;;13.57;55.38;102161.69;4838632;29;113936;-74
2021/10/18 01:22:02;;;;;;;17.33;9.90;;;;;;;13.55;55.65;102158.22;4836305;29;122140;-73
2021/10/18 01:24:30;;;;;;;17.77;10.55;;;;;;;13.55;55.46;102159.09;4836178;29;123762;-73
2021/10/18 01:26:58;;;;;;;16.05;10.07;;;;;;;13.55;55.44;102158.22;4837273;29;115087;-74
2021/10/18 01:29:28;;;;;;;17.45;10.65;;;;;;;13.55;55.65;102158.22;4836919;29;113192;-74
2021/10/18 01:31:55;;;;;;;15.63;10.38;;;;;;;13.53;55.69;102166.25;4836252;29;123529;-74
2021/10/18 01:34:22;;;;;;;16.10;10.48;;;;;;;13.53;55.66;102160.06;4837028;29;123315;-74
2021/10/18 01:36:49;;;;;;;17.55;10.55;;;;;;;13.53;55.77;102157.41;4838295;29;114551;-74
2021/10/18 01:39:17;;;;;;;18.48;10.68;;;;;;;13.54;55.88;102156.47;4836014;29;114312;-74
2021/10/18 01:41:44;;;;;;;18.23;11.18;;;;;;;13.52;55.63;102153.00;4832755;29;123568;-74
2021/10/18 01:44:11;;;;;;;16.02;10.40;;;;;;;13.51;55.75;102140.63;4837614;29;124443;-74
2021/10/18 01:46:38;;;;;;;19.45;11.07;;;;;;;13.52;56.00;102147.69;4837221;29;115065;-74
2021/10/18 01:49:05;;;;;;;20.48;10.43;;;;;;;13.52;55.99;102142.34;4836392;29;115261;-74
2021/10/18 01:51:32;;;;;;;15.20;10.73;;;;;;;13.51;55.91;102145.97;4835419;29;124381;-74
2021/10/18 01:53:59;;;;;;;17.48;11.10;;;;;;;13.51;55.87;102143.28;4836453;29;123132;-74
2021/10/18 01:56:26;;;;;;;17.20;10.82;;;;;;;13.50;55.93;102149.53;4837836;29;114253;-74
2021/10/18 01:58:53;;;;;;;14.70;10.10;;;;;;;13.50;55.96;102154.84;4838139;29;113562;-74
2021/10/18 02:01:21;;;;;;;15.85;10.68;;;;;;;13.49;55.99;102153.13;4837458;29;123280;-74
2021/10/18 02:03:49;;;;;;;18.48;10.85;;;;;;;13.49;55.92;102150.47;4836391;29;123758;-74
2021/10/18 02:06:16;;;;;;;17.80;10.85;;;;;;;13.49;55.76;102153.13;4836966;29;114376;-74
2021/10/18 02:08:43;;;;;;;17.23;10.80;;;;;;;13.48;55.88;102146.06;4836114;29;113555;-74
2021/10/18 02:11:12;;;;;;;16.55;10.25;;;;;;;13.48;55.86;102146.06;4834135;29;124173;-73
2021/10/18 02:13:39;;;;;;;17.45;10.32;;;;;;;13.45;55.90;102141.72;4835631;29;122927;-74
2021/10/18 02:16:06;;;;;;;18.80;11.27;;;;;;;13.43;55.98;102144.44;4837667;29;114364;-73
2021/10/18 02:18:34;;;;;;;19.27;11.52;;;;;;;13.41;56.01;102135.63;4837665;29;114850;-73
2021/10/18 02:21:01;;;;;;;16.90;10.80;;;;;;;13.39;56.02;102132.16;4828851;29;123814;-73
2021/10/18 02:23:29;;;;;;;20.38;11.23;;;;;;;13.38;56.03;102130.41;4830797;29;123909;-74
2021/10/18 02:25:57;;;;;;;15.05;10.35;;;;;;;13.36;56.18;102126.94;4834667;29;114009;-74
2021/10/18 02:28:24;;;;;;;16.00;10.88;;;;;;;13.33;56.18;102121.72;4836861;29;114022;-74
2021/10/18 02:30:51;;;;;;;18.83;11.02;;;;;;;13.30;56.08;102124.50;4837159;29;124109;-74
2021/10/18 02:33:19;;;;;;;18.58;11.18;;;;;;;13.30;56.23;102121.84;4833452;29;122691;-74
2021/10/18 02:35:46;;;;;;;17.70;10.70;;;;;;;13.28;56.25;102118.34;4833987;29;116146;-74
2021/10/18 02:38:14;;;;;;;17.58;10.68;;;;;;;13.26;56.41;102122.84;4835960;29;115458;-74
2021/10/18 02:40:42;;;;;;;16.23;10.43;;;;;;;13.25;56.20;102123.75;4834952;29;122644;-74
2021/10/18 02:43:09;;;;;;;16.48;10.40;;;;;;;13.24;56.09;102127.34;4835391;29;125126;-74
2021/10/18 02:45:36;;;;;;;17.13;10.48;;;;;;;13.21;56.19;102123.00;4837308;29;114047;-74
2021/10/18 02:48:03;;;;;;;15.45;10.38;;;;;;;13.20;56.15;102123.06;4837101;29;114408;-74
2021/10/18 02:50:30;;;;;;;17.33;10.50;;;;;;;13.18;56.28;102119.59;4836278;29;123909;-75
2021/10/18 02:52:58;;;;;;;17.17;10.15;;;;;;;13.15;55.95;102122.38;4834701;29;123655;-74
2021/10/18 02:55:25;;;;;;;16.52;10.57;;;;;;;13.11;55.98;102115.41;4837059;29;114599;-74
2021/10/18 02:57:53;;;;;;;14.98;9.77;;;;;;;13.08;56.06;102118.19;4835990;29;114164;-74
2021/10/18 03:00:20;;;;;;;16.48;10.77;;;;;;;13.04;55.84;102118.28;4833979;29;123893;-74
2021/10/18 03:02:51;;;;;;;17.48;10.27;;;;;;;12.99;55.94;102128.19;4832361;29;124344;-74
2021/10/18 03:05:18;;;;;;;17.55;10.05;;;;;;;12.94;55.89;102122.19;4835760;29;114674;-74
2021/10/18 03:07:50;;;;;;;16.92;9.95;;;;;;;12.90;55.79;102128.50;4834140;29;113135;-74
2021/10/18 03:10:20;;;;;;;16.52;9.75;;;;;;;12.84;55.90;102118.94;4833956;29;124164;-74
2021/10/18 03:12:47;;;;;;;15.88;10.20;;;;;;;12.81;55.93;102123.53;4833839;29;124871;-74
2021/10/18 03:15:15;;;;;;;17.13;10.48;;;;;;;12.77;55.88;102127.19;4834793;29;114229;-74
2021/10/18 03:17:43;;;;;;;15.90;9.70;;;;;;;12.71;56.00;102116.78;4834976;29;114050;-74
2021/10/18 03:20:12;;;;;;;18.50;10.85;;;;;;;12.65;55.91;102113.38;4835247;29;123664;-74
2021/10/18 03:22:41;;;;;;;18.13;10.52;;;;;;;12.59;56.07;102113.59;4833680;29;123753;-74
2021/10/18 03:25:10;;;;;;;18.58;11.05;;;;;;;12.54;56.09;102104.91;4835722;29;115524;-74
2021/10/18 03:27:37;;;;;;;18.60;11.38;;;;;;;12.47;56.05;102103.41;4836154;29;115795;-74
2021/10/18 03:30:05;;;;;;;18.40;10.95;;;;;;;12.41;56.32;102099.16;4833189;29;124109;-74
2021/10/18 03:32:33;;;;;;;22.60;14.55;;;;;;;12.39;56.49;102105.41;4834865;29;124152;-74
2021/10/18 03:35:01;;;;;;;23.92;15.73;;;;;;;12.34;56.59;102102.03;4836374;29;115550;-74
2021/10/18 03:37:28;;;;;;;23.17;15.40;;;;;;;12.31;56.42;102107.47;4836744;29;114302;-74
2021/10/18 03:39:55;;;;;;;21.42;13.90;;;;;;;12.29;56.44;102114.63;4834559;29;123425;-74
2021/10/18 03:42:22;;;;;;;24.30;14.32;;;;;;;12.23;56.52;102105.91;4833717;29;124788;-74
2021/10/18 03:44:49;;;;;;;21.98;13.32;;;;;;;12.21;56.66;102113.06;4834757;29;114491;-73
2021/10/18 03:47:17;;;;;;;21.25;13.13;;;;;;;12.18;56.78;102113.16;4834965;29;113992;-74
2021/10/18 03:49:44;;;;;;;19.73;12.82;;;;;;;12.16;56.75;102114.97;4835428;29;124312;-74
2021/10/18 03:52:15;;;;;;;19.80;12.50;;;;;;;12.14;56.94;102114.16;4835037;29;124346;-74
2021/10/18 03:54:42;;;;;;;22.80;12.57;;;;;;;12.11;56.78;102119.59;4831977;29;113093;-74
2021/10/18 03:57:09;;;;;;;18.33;12.05;;;;;;;12.09;56.96;102121.41;4835801;29;114348;-74
2021/10/18 03:59:36;;;;;;;23.15;12.70;;;;;;;12.06;56.90;102121.50;4836608;29;124098;-74
2021/10/18 04:02:05;;;;;;;17.48;11.85;;;;;;;12.04;56.84;102118.91;4833394;29;123695;-74
2021/10/18 04:04:32;;;;;;;20.20;12.30;;;;;;;12.00;56.95;102113.75;4836126;29;114463;-74
2021/10/18 04:06:59;;;;;;;18.20;11.68;;;;;;;11.99;56.95;102138.53;4834383;29;113928;-74
2021/10/18 04:09:26;;;;;;;18.50;12.00;;;;;;;11.95;57.12;102131.59;4832873;29;124825;-74
2021/10/18 04:11:54;;;;;;;21.50;12.07;;;;;;;11.93;57.07;102138.72;4832873;29;124616;-74
2021/10/18 04:14:21;;;;;;;22.10;12.40;;;;;;;11.90;57.12;102117.56;4836116;29;118136;-74
2021/10/18 04:16:48;;;;;;;23.60;13.00;;;;;;;11.90;57.27;102128.19;4836246;29;115749;-74
2021/10/18 04:19:15;;;;;;;18.42;11.73;;;;;;;11.87;57.14;102135.31;4833613;29;123897;-74
2021/10/18 04:21:43;;;;;;;18.25;11.85;;;;;;;11.87;57.22;102137.97;4832072;29;123949;-74
2021/10/18 04:24:10;;;;;;;19.50;12.10;;;;;;;11.85;57.23;102139.78;4835633;29;114705;-74
2021/10/18 04:26:37;;;;;;;18.95;11.32;;;;;;;11.86;57.56;102146.81;4833200;29;114060;-75
2021/10/18 04:29:06;;;;;;;21.60;12.30;;;;;;;11.85;57.58;102142.44;4833027;29;123838;-74
2021/10/18 04:31:34;;;;;;;20.95;12.52;;;;;;;11.87;57.47;102140.59;4833045;29;123109;-74
2021/10/18 04:34:01;;;;;;;20.80;11.00;;;;;;;11.88;57.67;102142.38;4834631;29;115001;-74
2021/10/18 04:36:29;;;;;;;20.23;11.68;;;;;;;11.91;57.38;102140.56;4833192;29;113364;-74
2021/10/18 04:38:56;;;;;;;21.55;11.65;;;;;;;11.90;57.58;102138.81;4834742;29;125127;-75
2021/10/18 04:41:23;;;;;;;20.25;11.80;;;;;;;11.91;57.52;102140.56;4832208;29;124019;-74
2021/10/18 04:43:50;;;;;;;18.98;11.75;;;;;;;11.91;57.68;102135.25;4831044;29;113718;-74
2021/10/18 04:46:17;;;;;;;18.40;11.38;;;;;;;11.91;57.76;102140.56;4833997;29;114808;-75
2021/10/18 04:48:45;;;;;;;17.73;10.50;;;;;;;11.91;57.77;102135.25;4832248;29;123555;-74
2021/10/18 04:51:12;;;;;;;19.55;10.80;;;;;;;11.90;57.43;102133.50;4833296;29;123963;-74
2021/10/18 04:53:39;;;;;;;21.45;10.48;;;;;;;11.88;57.64;102146.78;4834005;29;113561;-74
2021/10/18 04:56:06;;;;;;;17.92;11.10;;;;;;;11.88;57.74;102147.69;4833726;29;114351;-74
2021/10/18 04:58:33;;;;;;;19.58;10.68;;;;;;;11.87;57.55;102151.22;4832178;29;124106;-74
2021/10/18 05:01:00;;;;;;;17.30;10.98;;;;;;;11.87;57.63;102159.19;4833066;29;123892;-75
2021/10/18 05:03:27;;;;;;;17.58;10.57;;;;;;;11.87;57.60;102167.16;4834814;29;115843;-74
2021/10/18 05:05:55;;;;;;;16.50;10.73;;;;;;;11.86;57.47;102165.41;4834926;29;114941;-74
2021/10/18 05:08:29;;;;;;;18.35;10.80;;;;;;;11.85;57.64;102162.81;4832211;29;123848;-74
2021/10/18 05:10:56;;;;;;;17.52;10.45;;;;;;;11.82;57.40;102174.38;4834938;29;125190;-74
2021/10/18 05:13:25;;;;;;;19.50;10.88;;;;;;;11.81;57.65;102172.66;4832844;29;114296;-75
2021/10/18 05:15:52;;;;;;;19.25;11.30;;;;;;;11.78;57.64;102175.38;4835173;29;114045;-74
2021/10/18 05:18:21;;;;;;;20.08;11.50;;;;;;;11.76;57.51;102174.56;4833441;29;123176;-74
2021/10/18 05:20:50;;;;;;;19.23;11.13;;;;;;;11.70;57.79;102166.78;4833458;29;123739;-74
2021/10/18 05:23:17;;;;;;;18.58;11.40;;;;;;;11.67;57.74;102169.50;4830262;29;115019;-74
2021/10/18 05:25:46;;;;;;;21.23;12.40;;;;;;;11.65;57.75;102166.03;4834707;29;113917;-74
2021/10/18 05:28:13;;;;;;;18.35;11.10;;;;;;;11.63;58.05;102162.56;4832181;29;123489;-74
2021/10/18 05:30:40;;;;;;;19.92;11.18;;;;;;;11.62;57.59;102166.09;4833330;29;123508;-74
2021/10/18 05:33:07;;;;;;;21.65;12.23;;;;;;;11.59;57.75;102155.59;4833404;29;114048;-75
2021/10/18 05:35:36;;;;;;;19.98;11.68;;;;;;;11.56;57.99;102161.84;4834365;29;114343;-74
2021/10/18 05:38:04;;;;;;;18.40;11.20;;;;;;;11.54;58.15;102168.13;4813793;29;123318;-74
2021/10/18 05:40:31;;;;;;;20.08;10.98;;;;;;;11.52;57.93;102185.88;4835819;29;123853;-74
2021/10/18 05:42:59;;;;;;;21.25;12.43;;;;;;;11.52;58.26;102180.56;4838276;29;114324;-75
2021/10/18 05:45:26;;;;;;;22.40;12.10;;;;;;;11.50;58.34;102178.81;4838897;29;115921;-74
2021/10/18 05:48:00;;;;;;;20.02;11.93;;;;;;;11.51;58.28;102174.38;4838634;29;124223;-74
2021/10/18 05:50:36;;;;;;;19.90;11.68;;;;;;;11.50;58.38;102167.31;4848842;29;122883;-75
2021/10/18 05:53:04;;;;;;;20.02;11.45;;;;;;;11.50;58.07;102173.50;4831646;29;115289;-75
2021/10/18 05:55:31;;;;;;;18.20;11.00;;;;;;;11.47;58.20;102178.91;4835585;29;114913;-74
2021/10/18 05:58:01;;;;;;;19.13;11.15;;;;;;;11.46;58.30;102182.47;4833093;29;124368;-74
2021/10/18 06:00:28;;;;;;;16.23;10.25;;;;;;;11.45;58.37;102175.44;4834140;29;123897;-74
2021/10/18 06:02:56;;;;;;;20.60;11.57;;;;;;;11.44;58.27;102184.28;4837626;29;114073;-74
2021/10/18 06:05:26;;;;;;;19.77;11.02;;;;;;;11.44;58.15;102184.28;4838185;29;113842;-74
2021/10/18 06:08:03;;;;;;;18.65;10.90;;;;;;;11.41;58.13;102189.66;4836279;29;123717;-74
2021/10/18 06:10:30;;;;;;;18.00;10.32;;;;;;;11.42;58.43;102196.72;4834328;29;124602;-74
2021/10/18 06:12:57;;;;;;;18.70;10.77;;;;;;;11.42;58.36;102186.13;4835178;29;115095;-74
2021/10/18 06:15:24;;;;;;;19.25;11.18;;;;;;;11.41;58.36;102194.97;4833650;29;114589;-74
2021/10/18 06:17:51;;;;;;;17.88;10.52;;;;;;;11.38;58.12;102195.06;4835834;29;123074;-74
2021/10/18 06:20:19;;;;;;;19.63;11.35;;;;;;;11.37;58.32;102195.97;4836143;29;123690;-74
2021/10/18 06:22:48;;;;;;;19.25;11.15;;;;;;;11.36;58.31;102202.19;4833776;29;114579;-74
2021/10/18 06:25:15;;;;;;;17.85;10.48;;;;;;;11.37;58.24;102203.06;4836671;29;114159;-74
2021/10/18 06:27:42;;;;;;;21.20;12.00;;;;;;;11.35;58.25;102184.53;4835961;29;124660;-75
2021/10/18 06:30:09;;;;;;;17.85;10.70;;;;;;;11.36;58.30;102186.28;4849891;29;123690;-74
2021/10/18 06:32:37;;;;;;;16.92;9.88;;;;;;;11.34;58.08;102182.81;4837211;29;113820;-74
2021/10/18 06:35:04;;;;;;;22.30;11.27;;;;;;;11.34;58.38;102188.09;4834118;29;112284;-74
2021/10/18 06:37:33;;;;;;;16.05;10.27;;;;;;;11.34;58.33;102197.81;4837493;29;124267;-74
2021/10/18 06:40:00;;;;;;;21.75;11.32;;;;;;;11.34;58.35;102204.03;4837741;29;123716;-74
2021/10/18 06:42:27;;;;;;;18.25;10.52;;;;;;;11.36;58.40;102204.84;4837582;29;115729;-74
2021/10/18 06:44:54;;;;;;;20.35;11.63;;;;;;;11.37;58.51;102203.94;4836565;29;114246;-74
2021/10/18 06:47:21;;;;;;;19.88;11.60;;;;;;;11.39;58.60;102202.09;4836132;29;124367;-74
2021/10/18 06:49:48;;;;;;;22.10;12.02;;;;;;;11.42;58.76;102202.03;4836043;29;122927;-74
2021/10/18 06:52:15;;;;;;;21.17;11.75;;;;;;;11.44;58.64;102200.19;4836405;29;114826;-74
2021/10/18 06:54:42;;;;;;;22.05;11.85;;;;;;;11.48;59.01;102195.69;4837427;29;113911;-74
2021/10/18 06:57:09;;;;;;;22.58;12.25;;;;;;;11.52;58.94;102191.16;4837585;29;123856;-74
2021/10/18 06:59:37;;;;;;;21.58;12.18;;;;;;;11.55;58.78;102196.41;4838420;29;123974;-75
2021/10/18 07:02:04;;;;;;;20.27;11.90;;;;;;;11.58;58.98;102196.31;4841915;29;114225;-74
2021/10/18 07:04:35;;;;;;;20.55;11.68;;;;;;;11.61;58.93;102196.22;4841557;29;114419;-74
2021/10/18 07:07:03;;;;;;;25.02;12.05;;;;;;;11.66;59.17;102199.63;4841743;29;124416;-74
2021/10/18 07:09:34;;;;;;;24.35;12.30;;;;;;;11.71;58.89;102208.31;4845861;29;123549;-74
2021/10/18 07:12:02;;;;;;;21.38;11.40;;;;;;;11.75;59.16;102209.97;4836774;29;113460;-74
2021/10/18 07:14:29;;;;;;;21.48;11.18;;;;;;;11.81;59.22;102224.84;4819343;29;113137;-74
2021/10/18 07:16:56;;;;;;;22.60;12.10;;;;;;;11.84;59.36;102225.63;4838246;29;124574;-74
2021/10/18 07:19:23;;;;;;;22.77;11.63;;;;;;;11.87;59.03;102225.56;4833455;29;123664;-74
2021/10/18 07:21:50;;;;;;;26.20;11.98;;;;;;;11.88;59.19;102227.31;4833691;29;114944;-73
2021/10/18 07:24:17;;;;;;;21.95;11.50;;;;;;;11.92;59.24;102216.63;4834054;29;114456;-73
2021/10/18 07:26:49;;;;;;;18.77;11.82;;;;;;;11.95;59.08;102216.53;4835267;29;125886;-73
2021/10/18 07:29:17;;;;;;;21.23;11.93;;;;;;;12.00;59.13;102219.94;4830690;29;123632;-74
2021/10/18 07:31:44;;;;;;;20.95;11.85;;;;;;;12.05;59.01;102210.03;4834456;29;117161;-74
2021/10/18 07:34:14;;;;;;;23.80;11.80;;;;;;;12.10;59.18;102194.00;4833521;29;113771;-74
2021/10/18 07:36:51;;;;;;;20.50;11.98;;;;;;;12.12;59.19;102198.31;4829058;29;124073;-74
2021/10/18 07:39:21;;;;;;;21.33;11.80;;;;;;;12.16;58.99;102199.13;4832863;29;123578;-74
2021/10/18 07:41:50;;;;;;;18.95;11.10;;;;;;;12.18;59.21;102192.81;4832881;29;113561;-74
2021/10/18 07:44:18;;;;;;;20.30;11.15;;;;;;;12.23;59.11;102198.88;4836618;29;113827;-74
2021/10/18 07:46:45;;;;;;;21.55;11.57;;;;;;;12.27;59.24;102189.88;4836010;29;125504;-74
2021/10/18 07:49:13;;;;;;;19.67;11.40;;;;;;;12.33;59.06;102191.50;4833866;28;123194;-74
2021/10/18 07:51:40;;;;;;;19.90;11.18;;;;;;;12.36;58.99;102201.19;4835893;29;114989;-74
2021/10/18 07:54:07;;;;;;;18.77;11.30;;;;;;;12.41;59.17;102209.84;4835940;29;113996;-75
2021/10/18 07:56:35;;;;;;;18.10;11.43;;;;;;;12.48;58.95;102206.09;4835476;29;124241;-74
2021/10/18 07:59:02;;;;;;;18.13;10.55;;;;;;;12.53;59.13;102206.81;4834928;29;123630;-74
2021/10/18 08:01:29;;;;;;;19.55;11.45;;;;;;;12.62;59.33;102210.97;4835843;29;114048;-74
2021/10/18 08:03:56;;;;;;;19.98;11.05;;;;;;;12.70;59.25;102210.75;4833512;29;113685;-75
2021/10/18 08:06:23;;;;;;;20.00;11.30;;;;;;;12.78;59.21;102208.69;4833571;29;123908;-74
2021/10/18 08:08:53;;;;;;;18.30;11.10;;;;;;;12.86;59.18;102204.00;4834724;29;123488;-74
2021/10/18 08:11:20;;;;;;;17.73;11.00;;;;;;;12.94;59.24;102207.28;4832180;29;113819;-74
2021/10/18 08:13:48;;;;;;;17.92;10.98;;;;;;;13.03;59.16;102203.44;4832753;29;113846;-74
2021/10/18 08:16:15;;;;;;;17.50;10.77;;;;;;;13.11;59.32;102213.81;4834491;29;123714;-74
2021/10/18 08:18:43;;;;;;;17.65;9.93;;;;;;;13.18;59.03;102207.38;4833489;29;124164;-74
2021/10/18 08:21:11;;;;;;;20.02;10.20;;;;;;;13.25;58.91;102208.91;4835773;29;115800;-74
2021/10/18 08:23:38;;;;;;;23.48;10.48;;;;;;;13.30;58.75;102207.00;4835129;29;114721;-74
2021/10/18 08:26:06;;;;;;;17.33;10.07;;;;;;;13.37;58.83;102219.19;4834905;29;123448;-74
2021/10/18 08:28:33;;;;;;;27.48;10.82;;;;;;;13.44;58.88;102219.81;4818383;29;124519;-74
2021/10/18 08:31:13;;;;;;;15.98;9.90;;;;;;;13.51;58.68;102220.47;4830978;29;114998;-75
2021/10/18 08:33:41;;;;;;;20.30;10.68;;;;;;;13.60;58.67;102220.16;4835191;29;113768;-74
2021/10/18 08:36:08;;;;;;;19.33;10.48;;;;;;;13.66;58.81;102209.28;4815818;29;123577;-74
2021/10/18 08:38:49;;;;;;;16.95;9.88;;;;;;;13.76;58.53;102216.00;4834693;29;123278;-74
2021/10/18 08:41:43;;;;;;;22.27;10.52;;;;;;;13.84;58.57;102205.06;4837979;29;114126;-74
2021/10/18 08:44:14;;;;;;;18.00;10.27;;;;;;;13.93;58.51;102206.53;4818940;29;114326;-75
2021/10/18 08:46:42;;;;;;;18.80;10.20;;;;;;;14.01;58.57;102215.09;4828739;29;124656;-74
2021/10/18 08:49:09;;;;;;;20.60;10.65;;;;;;;14.10;58.35;102209.41;4845379;29;122872;-74
2021/10/18 08:51:36;;;;;;;18.65;10.77;;;;;;;14.19;58.25;102213.53;4817314;29;114271;-74
2021/10/18 08:54:07;;;;;;;17.85;10.90;;;;;;;14.29;58.25;102211.38;4848375;29;113547;-74
2021/10/18 08:56:55;;;;;;;17.20;9.95;;;;;;;14.38;58.11;102209.22;4835058;29;123074;-74
2021/10/18 08:59:26;;;;;;;15.57;10.73;;;;;;;14.48;58.06;102209.72;4834116;29;124028;-74
2021/10/18 09:01:57;;;;;;;16.77;10.43;;;;;;;14.57;57.84;102204.06;4819634;29;113140;-74
2021/10/18 09:04:31;;;;;;;19.33;10.07;;;;;;;14.66;57.84;102201.97;4835625;29;113367;-74
2021/10/18 09:07:00;;;;;;;20.33;11.25;;;;;;;14.75;57.77;102196.28;4835453;29;124048;-74
2021/10/18 09:09:42;;;;;;;17.02;10.00;;;;;;;14.83;57.74;102187.94;4835519;29;123945;-74
2021/10/18 09:12:22;;;;;;;17.17;10.13;;;;;;;14.93;57.61;102190.16;4835578;29;115549;-74
2021/10/18 09:14:49;;;;;;;16.98;10.27;;;;;;;15.05;57.54;102193.25;4825601;29;115584;-74
2021/10/18 09:17:32;;;;;;;18.95;10.65;;;;;;;15.16;57.36;102190.97;4837556;29;124152;-74
2021/10/18 09:20:30;;;;;;;18.15;10.57;;;;;;;15.28;57.46;102190.47;4824786;29;123686;-74
2021/10/18 09:23:18;;;;;;;16.92;10.60;;;;;;;15.42;57.23;102191.66;4833966;29;114089;-74
2021/10/18 09:25:45;;;;;;;16.45;10.50;;;;;;;15.54;57.12;102212.50;4829515;29;114247;-74
2021/10/18 09:28:16;;;;;;;18.25;10.63;;;;;;;15.65;57.06;102220.91;4832155;29;124067;-74
2021/10/18 09:30:46;;;;;;;17.00;10.23;;;;;;;15.77;56.88;102204.34;4830474;29;123783;-74
2021/10/18 09:33:33;;;;;;;18.27;10.80;;;;;;;15.87;56.50;102198.59;4823856;29;114583;-74
2021/10/18 09:36:04;;;;;;;17.83;10.52;;;;;;;15.96;56.34;102187.47;4820948;29;113074;-74
2021/10/18 09:38:31;;;;;;;18.08;10.63;;;;;;;16.05;56.12;102186.16;4835834;29;122825;-74
2021/10/18 09:41:00;;;;;;;15.52;10.32;;;;;;;16.12;56.05;102191.19;4837624;29;123787;-74
2021/10/18 09:43:49;;;;;;;16.63;10.80;;;;;;;16.21;56.01;102203.22;4833071;29;113674;-75
2021/10/18 10:51:41;;;;;;;19.85;10.43;;;;;;;17.48;53.17;102138.97;4834129;29;114151;-73
2021/10/18 10:54:08;;;;;;;18.52;10.15;;;;;;;17.52;53.27;102136.03;4836957;28;113091;-73
2021/10/18 10:59:23;;;;;;;15.65;9.32;;;;;;;17.63;52.96;102124.75;4835812;29;122811;-73
2021/10/18 11:01:56;;;;;;;15.75;9.60;;;;;;;17.68;52.88;102119.13;4835295;29;114752;-72
2021/10/18 11:04:38;;;;;;;16.20;9.52;;;;;;;17.69;52.68;102116.38;4835796;29;114632;-72
2021/10/18 11:07:34;;;;;;;17.60;9.02;;;;;;;17.73;52.49;102116.22;4834423;29;123776;-72
2021/10/18 11:10:06;;;;;;;15.75;9.10;;;;;;;17.76;52.35;102116.03;4837544;29;123617;-72
2021/10/18 11:12:35;;;;;;;15.13;9.43;;;;;;;17.81;52.29;102124.69;4834151;29;113817;-72
2021/10/18 11:15:14;;;;;;;16.17;10.20;;;;;;;17.86;52.21;102122.66;4828769;29;114137;-73
2021/10/18 11:17:50;;;;;;;14.40;9.50;;;;;;;17.92;52.24;102116.94;4830858;29;123651;-72
2021/10/18 11:20:19;;;;;;;18.45;9.43;;;;;;;18.01;52.18;102105.72;4835704;29;122628;-72
2021/10/18 11:22:51;;;;;;;19.02;9.85;;;;;;;18.08;51.97;102107.09;4833783;29;114293;-72
2021/10/18 11:25:24;;;;;;;14.55;9.45;;;;;;;18.14;51.76;102111.25;4822709;29;113662;-72
2021/10/18 11:27:57;;;;;;;15.32;9.32;;;;;;;18.20;51.57;102102.00;4848013;29;122635;-73
2021/10/18 11:30:32;;;;;;;18.13;9.60;;;;;;;18.25;51.48;102107.94;4833620;29;123790;-72
2021/10/18 11:33:08;;;;;;;13.57;8.75;;;;;;;18.31;51.36;102102.25;4835309;29;114530;-73
2021/10/18 11:35:36;;;;;;;15.00;9.30;;;;;;;18.34;51.26;102102.03;4826798;29;114473;-73
2021/10/18 11:38:12;;;;;;;13.75;8.88;;;;;;;18.39;51.33;102097.28;4832434;29;124546;-72
2021/10/18 11:40:45;;;;;;;17.00;9.35;;;;;;;18.45;51.29;102072.78;4835805;29;122813;-72
2021/10/18 11:43:13;;;;;;;16.48;9.60;;;;;;;18.53;51.22;102074.16;4837083;29;114754;-73
2021/10/18 11:45:43;;;;;;;15.45;9.52;;;;;;;18.60;51.18;102071.00;4822035;29;114909;-72
2021/10/18 11:48:12;;;;;;;16.08;8.65;;;;;;;18.69;51.04;102069.59;4834016;29;124991;-72
2021/10/18 11:50:41;;;;;;;15.52;8.95;;;;;;;18.76;50.73;102070.97;4852488;29;124571;-73
2021/10/18 11:53:16;;;;;;;14.68;9.35;;;;;;;18.81;50.69;102073.41;4838661;29;114995;-73
2021/10/18 11:55:48;;;;;;;17.35;9.75;;;;;;;18.86;50.65;102064.09;4839038;29;115266;-73
2021/10/18 11:58:27;;;;;;;15.55;8.68;;;;;;;18.93;50.41;102055.69;4834271;29;124213;-73
2021/10/18 12:00:57;;;;;;;15.43;8.60;;;;;;;18.99;50.27;102055.31;4831113;29;123753;-73
2021/10/18 12:03:26;;;;;;;14.88;9.07;;;;;;;19.06;50.15;102045.91;4820759;29;114921;-73
2021/10/18 12:05:55;;;;;;;12.20;7.97;;;;;;;19.11;49.91;102051.88;4819030;29;113032;-73
2021/10/18 12:08:28;;;;;;;12.52;8.43;;;;;;;19.16;49.93;102056.97;4825741;29;99031;-71
2021/10/18 12:10:56;;;;;;;14.73;8.15;;;;;;;19.19;49.81;102041.53;4837262;29;124581;-72
2021/10/18 12:13:28;;;;;;;13.60;8.57;;;;;;;19.22;49.54;102019.84;4835743;29;114258;-71
2021/10/18 12:16:05;;;;;;;13.35;8.55;;;;;;;19.24;49.65;102011.69;4848098;29;114043;-71
2021/10/18 12:18:34;;;;;;;14.18;8.07;;;;;;;19.22;49.62;102009.09;4832891;29;123952;-72